TAF Text Data
IDs:
Format:
Raw Decoded Include METAR

Data at: 1803 UTC 20 May 2022

WMKK 201730Z 00000KT 9000 FEW010 27/25 Q1010 NOSIG

TAF WMKK 201700Z 2018/2200 VRB02KT 9999 FEW018
  PROB30
  TEMPO 2020/2023 4000 TSRA FEW017CB
  TEMPO 2107/2110 4000 TSRA FEW017CB